Time;durP1;ratioP1;P1;durP2;ratioP2;P2;SDS_P1;SDS_P2;PMS_P1;PMS_P2;Temp;Humidity;BMP_temperature;BMP_pressure;BME280_temperature;BME280_humidity;BME280_pressure;Samples;Min_cycle;Max_cycle;Signal;HPM_P1;HPM_P2
2023/09/01 00:00:12;;;;;;;3.90;3.00;;;;;;;;;;5005986;28;20044;-73
2023/09/01 00:02:39;;;;;;;5.28;2.88;;;;;;;;;;5038377;28;20094;-73
2023/09/01 00:05:05;;;;;;;5.88;2.72;;;;;;;;;;5020120;28;20045;-73
2023/09/01 00:07:32;;;;;;;7.50;2.88;;;;;;;;;;5034144;28;20052;-74
2023/09/01 00:09:58;;;;;;;4.72;3.20;;;;;;;;;;5019278;28;20049;-74
2023/09/01 00:12:25;;;;;;;6.38;3.08;;;;;;;;;;5005212;28;20041;-73
2023/09/01 00:14:51;;;;;;;5.82;2.97;;;;;;;;;;5003721;28;20045;-73
2023/09/01 00:17:17;;;;;;;6.05;2.60;;;;;;;;;;5037189;28;20155;-74
2023/09/01 00:19:43;;;;;;;4.63;2.65;;;;;;;;;;5037935;28;20044;-74
2023/09/01 00:22:09;;;;;;;7.35;3.17;;;;;;;;;;5016561;28;20519;-74
2023/09/01 00:24:36;;;;;;;7.75;2.80;;;;;;;;;;5037588;28;20037;-73
2023/09/01 00:27:02;;;;;;;6.32;3.40;;;;;;;;;;5001839;28;20131;-74
2023/09/01 00:29:33;;;;;;;6.07;3.00;;;;;;;;;;5019961;28;20060;-73
2023/09/01 00:31:59;;;;;;;5.65;3.22;;;;;;;;;;5011055;28;20041;-78
2023/09/01 00:34:25;;;;;;;6.05;3.03;;;;;;;;;;5030308;28;20573;-78
2023/09/01 00:36:51;;;;;;;5.90;2.58;;;;;;;;;;4997620;28;20083;-80
2023/09/01 00:39:18;;;;;;;3.53;3.10;;;;;;;;;;5013417;28;20052;-79
2023/09/01 00:41:44;;;;;;;5.22;3.22;;;;;;;;;;5013480;28;20331;-78
2023/09/01 00:44:13;;;;;;;5.05;3.38;;;;;;;;;;5015066;28;20040;-78
2023/09/01 00:46:39;;;;;;;7.35;2.83;;;;;;;;;;5033797;28;20040;-78
2023/09/01 00:49:06;;;;;;;7.75;2.92;;;;;;;;;;5013263;28;20164;-78
2023/09/01 00:51:33;;;;;;;7.53;3.70;;;;;;;;;;5005561;28;20412;-78
2023/09/01 00:53:59;;;;;;;4.85;3.33;;;;;;;;;;4996059;28;20080;-78
2023/09/01 00:56:25;;;;;;;8.57;3.88;;;;;;;;;;5018514;28;20483;-78
2023/09/01 00:58:51;;;;;;;6.95;3.42;;;;;;;;;;4997212;28;20056;-78
2023/09/01 01:01:17;;;;;;;5.88;3.10;;;;;;;;;;5016668;28;20040;-78
2023/09/01 01:03:43;;;;;;;6.68;4.00;;;;;;;;;;5004092;28;20040;-78
2023/09/01 01:06:13;;;;;;;8.75;3.78;;;;;;;;;;5031872;28;20039;-79
2023/09/01 01:08:54;;;;;;;9.20;3.53;;;;;;;;;;5014111;28;20472;-78
2023/09/01 01:11:27;;;;;;;3.72;2.95;;;;;;;;;;5014421;28;20041;-78
2023/09/01 01:13:56;;;;;;;4.38;3.40;;;;;;;;;;5030163;28;20049;-79
2023/09/01 01:16:23;;;;;;;4.72;3.55;;;;;;;;;;5015369;28;20197;-78
2023/09/01 01:18:50;;;;;;;13.27;3.28;;;;;;;;;;5015051;28;20644;-78
2023/09/01 01:21:20;;;;;;;7.13;3.72;;;;;;;;;;5014001;28;20472;-78
2023/09/01 01:23:46;;;;;;;6.25;4.20;;;;;;;;;;4996380;28;20153;-79
2023/09/01 01:26:15;;;;;;;8.63;3.55;;;;;;;;;;5013782;28;20041;-78
2023/09/01 01:28:42;;;;;;;5.70;3.60;;;;;;;;;;5033120;28;20056;-78
2023/09/01 01:31:08;;;;;;;6.72;3.83;;;;;;;;;;5028197;28;20057;-78
2023/09/01 01:33:51;;;;;;;8.30;3.97;;;;;;;;;;5014838;28;20493;-79
2023/09/01 01:36:20;;;;;;;6.47;3.67;;;;;;;;;;5013617;28;20049;-79
2023/09/01 01:38:52;;;;;;;10.85;4.07;;;;;;;;;;5012735;28;20056;-79
2023/09/01 01:41:20;;;;;;;8.48;3.60;;;;;;;;;;5030236;28;20404;-78
2023/09/01 01:43:50;;;;;;;4.93;3.50;;;;;;;;;;5012913;28;20064;-79
2023/09/01 01:46:16;;;;;;;6.05;3.90;;;;;;;;;;5011836;28;22039;-78
2023/09/01 01:48:42;;;;;;;7.20;3.85;;;;;;;;;;5013975;28;20606;-78
2023/09/01 01:51:08;;;;;;;4.68;3.25;;;;;;;;;;5014473;28;20048;-79
2023/09/01 01:53:37;;;;;;;7.72;3.60;;;;;;;;;;5012416;28;20082;-79
2023/09/01 01:56:04;;;;;;;9.63;3.67;;;;;;;;;;4997375;28;20140;-78
2023/09/01 01:58:31;;;;;;;6.25;3.42;;;;;;;;;;5011939;28;20127;-79
2023/09/01 02:00:57;;;;;;;6.80;3.25;;;;;;;;;;5034512;28;20069;-78
2023/09/01 02:03:23;;;;;;;5.68;3.67;;;;;;;;;;5003805;28;20052;-78
2023/09/01 02:05:49;;;;;;;5.22;3.80;;;;;;;;;;5002248;28;20045;-78
2023/09/01 02:08:15;;;;;;;7.53;3.47;;;;;;;;;;5037143;28;20044;-79
2023/09/01 02:10:41;;;;;;;7.00;3.25;;;;;;;;;;5018326;28;20121;-79
2023/09/01 02:13:08;;;;;;;9.23;3.80;;;;;;;;;;5015087;28;20044;-78
2023/09/01 02:15:34;;;;;;;10.82;3.80;;;;;;;;;;5016490;28;20133;-78
2023/09/01 02:18:00;;;;;;;10.70;3.90;;;;;;;;;;5017882;28;20100;-78
2023/09/01 02:20:26;;;;;;;7.82;4.15;;;;;;;;;;5035828;28;20135;-78
2023/09/01 02:22:54;;;;;;;7.30;4.35;;;;;;;;;;5021234;28;20128;-78
2023/09/01 02:25:21;;;;;;;7.80;4.22;;;;;;;;;;5034187;28;20622;-78
2023/09/01 02:27:47;;;;;;;10.40;4.55;;;;;;;;;;5010900;28;20173;-78
2023/09/01 02:30:13;;;;;;;7.35;4.32;;;;;;;;;;5012556;28;20056;-78
2023/09/01 02:32:39;;;;;;;11.10;4.13;;;;;;;;;;4996430;28;20048;-78
2023/09/01 02:35:08;;;;;;;6.90;4.70;;;;;;;;;;5012384;28;20033;-78
2023/09/01 02:37:34;;;;;;;7.78;4.20;;;;;;;;;;5009268;28;20048;-78
2023/09/01 02:40:00;;;;;;;9.85;4.85;;;;;;;;;;5009728;28;20060;-78
2023/09/01 02:42:26;;;;;;;9.15;4.80;;;;;;;;;;5009030;28;20498;-78
2023/09/01 02:44:53;;;;;;;7.97;4.18;;;;;;;;;;5008993;28;20515;-78
2023/09/01 02:47:19;;;;;;;6.20;4.43;;;;;;;;;;5010865;28;20147;-78
2023/09/01 02:49:45;;;;;;;13.55;4.50;;;;;;;;;;5005904;28;20071;-77
2023/09/01 02:52:11;;;;;;;8.77;4.65;;;;;;;;;;5008061;28;20044;-78
2023/09/01 02:54:37;;;;;;;9.20;4.57;;;;;;;;;;5010587;28;20044;-78
2023/09/01 02:57:04;;;;;;;5.85;4.38;;;;;;;;;;5009753;28;20119;-78
2023/09/01 02:59:30;;;;;;;5.50;4.13;;;;;;;;;;5010034;28;20140;-78
2023/09/01 03:01:56;;;;;;;8.65;4.50;;;;;;;;;;5006572;28;20510;-77
2023/09/01 03:04:22;;;;;;;7.50;4.22;;;;;;;;;;5011179;28;20064;-77
2023/09/01 03:06:48;;;;;;;5.80;4.43;;;;;;;;;;5012521;28;20037;-77
2023/09/01 03:09:15;;;;;;;7.05;4.20;;;;;;;;;;5014293;28;20052;-78
2023/09/01 03:11:41;;;;;;;7.60;4.55;;;;;;;;;;5015483;28;20152;-78
2023/09/01 03:14:07;;;;;;;6.28;4.50;;;;;;;;;;5015051;28;20370;-77
2023/09/01 03:16:34;;;;;;;7.03;4.38;;;;;;;;;;5012708;28;20151;-77
2023/09/01 03:19:00;;;;;;;7.22;4.22;;;;;;;;;;5016859;28;20045;-78
2023/09/01 03:21:30;;;;;;;14.07;4.45;;;;;;;;;;5013136;28;20045;-78
2023/09/01 03:23:59;;;;;;;11.45;4.80;;;;;;;;;;5014424;28;20052;-79
2023/09/01 03:26:26;;;;;;;4.32;3.88;;;;;;;;;;5014560;28;20041;-78
2023/09/01 03:28:52;;;;;;;9.35;4.65;;;;;;;;;;5020771;28;20163;-78
2023/09/01 03:31:18;;;;;;;13.98;4.65;;;;;;;;;;5002686;28;20049;-78
2023/09/01 03:33:44;;;;;;;7.60;4.35;;;;;;;;;;5010477;28;20041;-78
2023/09/01 03:36:10;;;;;;;9.50;4.10;;;;;;;;;;5009023;28;20077;-78
2023/09/01 03:38:37;;;;;;;9.32;4.35;;;;;;;;;;5006764;28;20102;-77
2023/09/01 03:41:04;;;;;;;14.15;4.63;;;;;;;;;;5009268;28;20041;-78
2023/09/01 03:43:30;;;;;;;8.30;4.65;;;;;;;;;;5014599;28;20049;-77
2023/09/01 03:45:57;;;;;;;10.73;4.65;;;;;;;;;;5012202;28;20045;-78
2023/09/01 03:48:24;;;;;;;9.68;4.38;;;;;;;;;;4995829;28;20200;-78
2023/09/01 03:51:08;;;;;;;6.70;4.35;;;;;;;;;;5012264;28;20087;-78
2023/09/01 03:53:35;;;;;;;8.73;4.40;;;;;;;;;;5008373;28;20460;-78
2023/09/01 03:56:01;;;;;;;9.93;4.07;;;;;;;;;;5012182;28;20046;-78
2023/09/01 03:58:27;;;;;;;5.07;4.30;;;;;;;;;;5013253;28;20103;-78
2023/09/01 04:00:53;;;;;;;13.02;5.30;;;;;;;;;;5016779;28;20041;-78
2023/09/01 04:03:19;;;;;;;7.22;4.13;;;;;;;;;;5016863;28;20040;-78
2023/09/01 04:05:45;;;;;;;7.50;4.55;;;;;;;;;;5018908;28;20044;-76
2023/09/01 04:08:11;;;;;;;10.05;4.90;;;;;;;;;;5017092;28;20053;-78
2023/09/01 04:10:39;;;;;;;9.52;4.68;;;;;;;;;;5020766;28;20041;-78
2023/09/01 04:13:05;;;;;;;9.10;4.80;;;;;;;;;;5017843;28;20053;-79
2023/09/01 04:15:31;;;;;;;6.47;4.70;;;;;;;;;;5014616;28;20049;-78
2023/09/01 04:17:57;;;;;;;11.48;4.70;;;;;;;;;;5014149;28;20111;-77
2023/09/01 04:20:23;;;;;;;8.88;4.43;;;;;;;;;;5018411;28;20037;-77
2023/09/01 04:22:49;;;;;;;6.75;4.60;;;;;;;;;;5018394;28;20037;-77
2023/09/01 04:25:15;;;;;;;7.28;4.60;;;;;;;;;;5016457;28;20046;-77
2023/09/01 04:27:41;;;;;;;8.38;4.72;;;;;;;;;;5016899;28;20059;-77
2023/09/01 04:30:09;;;;;;;6.78;4.43;;;;;;;;;;5031258;28;20137;-77
2023/09/01 04:32:35;;;;;;;10.23;4.75;;;;;;;;;;5032690;28;20048;-77
2023/09/01 04:35:01;;;;;;;10.13;5.65;;;;;;;;;;5012916;28;20136;-77
2023/09/01 04:37:27;;;;;;;8.02;4.88;;;;;;;;;;5012013;28;21001;-78
2023/09/01 04:39:53;;;;;;;9.93;5.05;;;;;;;;;;5031549;28;20443;-78
2023/09/01 04:42:19;;;;;;;9.10;5.07;;;;;;;;;;5016806;28;20051;-77
2023/09/01 04:44:45;;;;;;;9.68;5.55;;;;;;;;;;4999032;28;20154;-78
2023/09/01 04:47:11;;;;;;;10.02;4.72;;;;;;;;;;5012725;28;20068;-78
2023/09/01 04:49:37;;;;;;;5.18;4.22;;;;;;;;;;4999927;28;20942;-77
2023/09/01 04:52:04;;;;;;;6.65;5.10;;;;;;;;;;5030513;28;20423;-76
2023/09/01 04:54:30;;;;;;;9.00;4.60;;;;;;;;;;5032821;28;20037;-76
2023/09/01 04:56:56;;;;;;;7.25;4.63;;;;;;;;;;5000865;28;20056;-76
2023/09/01 04:59:22;;;;;;;8.38;4.63;;;;;;;;;;5034594;28;20044;-77
2023/09/01 05:01:49;;;;;;;8.98;4.25;;;;;;;;;;5001086;28;20136;-77
2023/09/01 05:04:15;;;;;;;5.47;4.18;;;;;;;;;;5015749;28;20040;-77
2023/09/01 05:06:41;;;;;;;8.25;4.10;;;;;;;;;;5009836;28;20440;-76
2023/09/01 05:09:07;;;;;;;6.40;4.13;;;;;;;;;;4996268;28;20124;-77
2023/09/01 05:11:33;;;;;;;4.65;3.80;;;;;;;;;;5012640;28;20049;-77
2023/09/01 05:13:59;;;;;;;8.40;4.07;;;;;;;;;;5011158;28;20049;-77
2023/09/01 05:16:25;;;;;;;6.40;3.67;;;;;;;;;;5009296;28;20094;-77
2023/09/01 05:18:51;;;;;;;6.80;3.90;;;;;;;;;;5009642;28;20067;-77
2023/09/01 05:21:18;;;;;;;7.90;4.80;;;;;;;;;;4995279;28;20483;-77
2023/09/01 05:23:44;;;;;;;7.13;4.45;;;;;;;;;;5027922;28;20036;-78
2023/09/01 05:26:10;;;;;;;6.47;3.78;;;;;;;;;;5011400;28;20173;-76
2023/09/01 05:28:36;;;;;;;6.93;4.13;;;;;;;;;;5026045;28;20057;-77
2023/09/01 05:31:03;;;;;;;6.43;4.40;;;;;;;;;;5012712;28;20099;-76
2023/09/01 05:33:29;;;;;;;8.13;4.07;;;;;;;;;;5025002;28;20040;-77
2023/09/01 05:35:55;;;;;;;8.82;4.47;;;;;;;;;;5011332;28;20095;-76
2023/09/01 05:38:21;;;;;;;11.95;4.30;;;;;;;;;;4993301;28;20049;-76
2023/09/01 05:41:01;;;;;;;6.40;4.10;;;;;;;;;;4994788;28;20096;-76
2023/09/01 05:43:28;;;;;;;8.40;4.45;;;;;;;;;;4999346;28;20041;-76
2023/09/01 05:45:54;;;;;;;9.68;4.10;;;;;;;;;;5028213;28;20558;-76
2023/09/01 05:48:20;;;;;;;5.53;3.70;;;;;;;;;;4995034;28;20049;-76
2023/09/01 05:50:47;;;;;;;15.15;4.32;;;;;;;;;;5009301;28;20049;-77
2023/09/01 05:53:13;;;;;;;6.10;3.60;;;;;;;;;;4993037;28;20302;-76
2023/09/01 05:55:39;;;;;;;8.90;4.20;;;;;;;;;;4997273;28;20163;-77
2023/09/01 05:58:05;;;;;;;6.00;4.13;;;;;;;;;;5011688;28;20590;-76
2023/09/01 06:00:31;;;;;;;7.57;4.25;;;;;;;;;;5010995;28;20120;-77
2023/09/01 06:02:57;;;;;;;10.05;4.32;;;;;;;;;;5032408;28;20037;-76
2023/09/01 06:05:24;;;;;;;11.55;4.28;;;;;;;;;;5012869;28;20041;-76
2023/09/01 06:07:50;;;;;;;11.32;4.68;;;;;;;;;;5029736;28;20067;-77
2023/09/01 06:10:16;;;;;;;9.80;4.72;;;;;;;;;;5032141;28;20055;-77
2023/09/01 06:12:42;;;;;;;7.13;4.05;;;;;;;;;;5013681;28;20044;-76
2023/09/01 06:15:09;;;;;;;11.80;4.10;;;;;;;;;;5030468;28;20055;-77
2023/09/01 06:17:37;;;;;;;12.10;4.15;;;;;;;;;;5031623;28;20184;-77
2023/09/01 06:20:04;;;;;;;7.82;4.55;;;;;;;;;;5011594;28;20044;-76
2023/09/01 06:22:30;;;;;;;7.65;4.43;;;;;;;;;;5032371;28;20099;-77
2023/09/01 06:24:56;;;;;;;6.80;4.00;;;;;;;;;;5011504;28;20045;-77
2023/09/01 06:27:22;;;;;;;6.03;4.25;;;;;;;;;;5011527;28;20598;-77
2023/09/01 06:29:49;;;;;;;11.82;4.95;;;;;;;;;;5009214;28;20072;-77
2023/09/01 06:32:15;;;;;;;13.35;6.28;;;;;;;;;;5007068;28;20649;-79
2023/09/01 06:34:41;;;;;;;11.13;6.32;;;;;;;;;;5001279;28;20063;-78
2023/09/01 06:37:07;;;;;;;7.90;6.03;;;;;;;;;;5013023;28;20048;-78
2023/09/01 06:39:33;;;;;;;12.48;5.20;;;;;;;;;;5030296;28;20132;-73
2023/09/01 06:41:59;;;;;;;10.27;4.80;;;;;;;;;;5025254;28;20044;-73
2023/09/01 06:44:25;;;;;;;10.32;4.82;;;;;;;;;;5035536;28;20044;-77
2023/09/01 06:46:52;;;;;;;8.73;4.82;;;;;;;;;;5000242;28;20440;-76
2023/09/01 06:49:18;;;;;;;7.07;3.92;;;;;;;;;;5012097;28;20123;-77
2023/09/01 06:51:44;;;;;;;9.05;3.97;;;;;;;;;;4996564;28;20051;-78
2023/09/01 06:54:10;;;;;;;8.20;4.20;;;;;;;;;;5028337;28;20059;-75
2023/09/01 06:56:36;;;;;;;7.20;4.05;;;;;;;;;;5013734;28;20551;-70
2023/09/01 06:59:02;;;;;;;10.75;4.68;;;;;;;;;;5017795;28;20033;-75
2023/09/01 07:01:28;;;;;;;5.47;4.10;;;;;;;;;;5013771;28;20095;-73
2023/09/01 07:03:54;;;;;;;6.60;4.10;;;;;;;;;;5014639;28;20044;-73
2023/09/01 07:06:20;;;;;;;6.75;4.10;;;;;;;;;;5030251;28;20082;-73
2023/09/01 07:08:47;;;;;;;7.78;3.72;;;;;;;;;;5014270;28;20045;-73
2023/09/01 07:11:14;;;;;;;8.68;4.00;;;;;;;;;;4997356;28;20045;-73
2023/09/01 07:13:41;;;;;;;6.88;3.80;;;;;;;;;;5003355;28;20060;-73
2023/09/01 07:16:07;;;;;;;13.25;4.10;;;;;;;;;;5014567;28;20049;-73
2023/09/01 07:18:33;;;;;;;7.95;3.28;;;;;;;;;;5014741;28;20143;-73
2023/09/01 07:21:00;;;;;;;6.07;3.05;;;;;;;;;;5016945;28;20045;-73
2023/09/01 07:23:27;;;;;;;13.48;2.85;;;;;;;;;;5020276;28;20068;-73
2023/09/01 07:25:53;;;;;;;4.55;2.97;;;;;;;;;;5013422;28;20052;-74
2023/09/01 07:28:20;;;;;;;4.03;2.97;;;;;;;;;;5014357;28;20065;-73
2023/09/01 07:30:46;;;;;;;7.78;2.90;;;;;;;;;;4998381;28;20266;-73
2023/09/01 07:33:12;;;;;;;7.90;2.58;;;;;;;;;;5036274;28;20515;-73
2023/09/01 07:35:38;;;;;;;8.73;2.53;;;;;;;;;;5018021;28;20599;-73
2023/09/01 07:38:04;;;;;;;5.78;2.38;;;;;;;;;;5035406;28;20045;-73
2023/09/01 07:40:34;;;;;;;6.07;3.00;;;;;;;;;;5004120;28;20041;-74
2023/09/01 07:43:00;;;;;;;7.32;2.22;;;;;;;;;;5015471;28;20040;-73
2023/09/01 07:45:27;;;;;;;4.22;1.95;;;;;;;;;;5034292;28;20045;-75
2023/09/01 07:47:53;;;;;;;9.63;3.05;;;;;;;;;;4999761;28;20102;-84
2023/09/01 07:50:23;;;;;;;5.00;2.15;;;;;;;;;;5003232;28;20048;-78
2023/09/01 07:52:50;;;;;;;7.15;2.60;;;;;;;;;;5045492;28;20079;-80
2023/09/01 07:55:16;;;;;;;4.72;2.55;;;;;;;;;;5028853;28;20058;-80
2023/09/01 07:57:42;;;;;;;7.32;2.60;;;;;;;;;;5017123;28;20053;-80
2023/09/01 08:00:09;;;;;;;6.75;2.67;;;;;;;;;;5025241;28;20056;-79
2023/09/01 08:02:35;;;;;;;6.30;2.22;;;;;;;;;;5028236;28;20040;-73
2023/09/01 08:05:03;;;;;;;4.95;2.28;;;;;;;;;;5014618;28;20055;-78
2023/09/01 08:07:30;;;;;;;6.43;2.58;;;;;;;;;;5013468;28;20405;-74
2023/09/01 08:09:57;;;;;;;5.85;2.65;;;;;;;;;;5014976;28;20630;-74
2023/09/01 08:12:23;;;;;;;6.95;2.03;;;;;;;;;;5032084;28;20044;-74
2023/09/01 08:14:49;;;;;;;5.20;2.55;;;;;;;;;;5028254;28;20037;-74
2023/09/01 08:17:15;;;;;;;7.30;2.25;;;;;;;;;;5017738;28;21826;-73
2023/09/01 08:19:41;;;;;;;4.65;2.10;;;;;;;;;;5004618;28;20088;-79
2023/09/01 08:22:08;;;;;;;5.07;2.53;;;;;;;;;;5036197;28;20043;-79
2023/09/01 08:24:34;;;;;;;4.63;2.95;;;;;;;;;;5037681;28;20049;-79
2023/09/01 08:27:01;;;;;;;4.20;2.10;;;;;;;;;;5018640;28;20060;-79
2023/09/01 08:29:29;;;;;;;5.22;2.75;;;;;;;;;;5017662;28;20106;-73
2023/09/01 08:31:55;;;;;;;3.35;2.72;;;;;;;;;;5030052;28;20141;-73
2023/09/01 08:34:21;;;;;;;5.40;2.45;;;;;;;;;;5015173;28;20075;-72
2023/09/01 08:36:48;;;;;;;5.10;2.15;;;;;;;;;;5000781;28;20158;-72
2023/09/01 08:39:15;;;;;;;4.78;2.25;;;;;;;;;;5019316;28;20136;-73
2023/09/01 08:41:41;;;;;;;6.88;2.55;;;;;;;;;;5032623;28;20142;-72
2023/09/01 08:44:07;;;;;;;8.15;2.65;;;;;;;;;;5037239;28;20044;-72
2023/09/01 08:46:35;;;;;;;5.63;2.03;;;;;;;;;;5017860;28;20044;-72
2023/09/01 08:49:02;;;;;;;5.65;2.08;;;;;;;;;;5015192;28;20056;-77
2023/09/01 08:51:28;;;;;;;4.72;1.92;;;;;;;;;;4999610;28;20086;-77
2023/09/01 08:53:54;;;;;;;10.75;2.00;;;;;;;;;;5031807;28;20044;-72
2023/09/01 08:56:21;;;;;;;8.43;2.40;;;;;;;;;;4986129;28;20052;-72
2023/09/01 08:58:47;;;;;;;6.53;2.10;;;;;;;;;;5016031;28;20083;-73
2023/09/01 09:01:16;;;;;;;4.78;1.92;;;;;;;;;;5021987;28;20037;-74
2023/09/01 09:03:42;;;;;;;6.97;1.90;;;;;;;;;;5015267;28;21394;-73
2023/09/01 09:06:12;;;;;;;7.68;2.80;;;;;;;;;;5020821;28;20153;-74
2023/09/01 09:08:38;;;;;;;12.32;3.55;;;;;;;;;;5023660;28;20044;-74
2023/09/01 09:11:12;;;;;;;3.50;2.53;;;;;;;;;;4983390;28;20048;-74
2023/09/01 09:13:38;;;;;;;;;;;;;;;;;;5013692;28;20048;-74
2023/09/01 09:16:04;;;;;;;6.18;2.78;;;;;;;;;;5016358;28;20830;-76
2023/09/01 09:18:30;;;;;;;6.97;2.78;;;;;;;;;;5035566;28;20087;-76
2023/09/01 09:20:57;;;;;;;9.15;2.88;;;;;;;;;;5035626;28;20163;-73
2023/09/01 09:23:41;;;;;;;8.57;2.40;;;;;;;;;;5002267;28;20046;-73
2023/09/01 09:26:07;;;;;;;8.20;2.13;;;;;;;;;;4999219;28;20051;-73
2023/09/01 09:28:33;;;;;;;6.68;2.10;;;;;;;;;;5017126;28;20075;-73
2023/09/01 09:31:00;;;;;;;11.55;2.83;;;;;;;;;;5036825;28;20040;-73
2023/09/01 09:33:30;;;;;;;7.07;2.65;;;;;;;;;;5017379;28;20194;-76
2023/09/01 09:35:56;;;;;;;9.80;2.75;;;;;;;;;;5017205;28;20052;-76
2023/09/01 09:38:23;;;;;;;8.70;3.45;;;;;;;;;;5031119;28;20384;-73
2023/09/01 09:40:59;;;;;;;5.18;3.03;;;;;;;;;;5018666;28;20128;-76
2023/09/01 09:43:26;;;;;;;7.63;3.05;;;;;;;;;;5019304;28;20053;-74
2023/09/01 09:45:53;;;;;;;9.15;3.00;;;;;;;;;;5018615;28;20056;-73
2023/09/01 09:48:19;;;;;;;12.88;3.00;;;;;;;;;;5020725;28;20048;-74
2023/09/01 09:50:47;;;;;;;6.75;3.10;;;;;;;;;;5035404;28;20037;-73
2023/09/01 09:53:14;;;;;;;5.25;2.67;;;;;;;;;;5033652;28;20041;-73
2023/09/01 09:55:46;;;;;;;5.50;2.90;;;;;;;;;;5008687;28;20064;-73
2023/09/01 09:58:13;;;;;;;4.60;2.72;;;;;;;;;;5016573;28;20111;-73
2023/09/01 10:00:40;;;;;;;7.18;2.78;;;;;;;;;;5016624;28;20103;-73
2023/09/01 10:03:08;;;;;;;3.72;2.45;;;;;;;;;;5010941;28;20048;-73
2023/09/01 10:05:34;;;;;;;3.33;1.95;;;;;;;;;;5013083;28;20048;-73
2023/09/01 10:08:02;;;;;;;3.88;1.67;;;;;;;;;;5012979;28;20053;-74
2023/09/01 10:10:28;;;;;;;3.88;1.50;;;;;;;;;;5032975;28;20040;-76
2023/09/01 10:12:55;;;;;;;3.72;1.50;;;;;;;;;;5030453;28;20646;-76
2023/09/01 10:15:21;;;;;;;4.10;2.10;;;;;;;;;;5019725;28;20029;-76
2023/09/01 10:17:48;;;;;;;11.05;2.78;;;;;;;;;;5021176;28;20645;-76
2023/09/01 10:20:14;;;;;;;5.90;2.20;;;;;;;;;;5017914;28;20053;-76
2023/09/01 10:22:40;;;;;;;3.40;1.35;;;;;;;;;;5039450;28;20041;-76
2023/09/01 10:25:10;;;;;;;4.53;1.38;;;;;;;;;;5040591;28;20044;-76
2023/09/01 10:27:37;;;;;;;2.55;1.10;;;;;;;;;;5037002;28;20045;-76
2023/09/01 10:30:23;;;;;;;4.05;1.52;;;;;;;;;;5038475;28;20958;-75
2023/09/01 10:32:49;;;;;;;5.72;1.77;;;;;;;;;;5036867;28;20052;-73
2023/09/01 10:35:35;;;;;;;5.40;1.30;;;;;;;;;;5020486;28;20910;-73
2023/09/01 10:38:13;;;;;;;4.53;1.63;;;;;;;;;;5017876;28;20504;-73
2023/09/01 10:40:42;;;;;;;7.65;1.40;;;;;;;;;;5020597;28;20079;-76
2023/09/01 10:43:09;;;;;;;4.03;1.80;;;;;;;;;;5009377;28;20045;-76
2023/09/01 10:45:36;;;;;;;6.38;1.85;;;;;;;;;;5017649;28;22000;-73
2023/09/01 10:48:04;;;;;;;3.88;1.45;;;;;;;;;;5003567;28;20041;-73
2023/09/01 10:50:33;;;;;;;4.40;1.38;;;;;;;;;;5019110;28;20113;-73
2023/09/01 10:53:22;;;;;;;3.25;1.08;;;;;;;;;;5018048;28;20095;-73
2023/09/01 10:56:07;;;;;;;3.08;1.02;;;;;;;;;;5037886;28;20682;-76
2023/09/01 10:58:59;;;;;;;2.97;1.02;;;;;;;;;;5018895;28;20524;-76
2023/09/01 11:01:25;;;;;;;1.80;1.00;;;;;;;;;;5015933;28;20109;-76
2023/09/01 11:03:52;;;;;;;5.05;2.22;;;;;;;;;;5036483;28;21992;-73
2023/09/01 11:06:18;;;;;;;4.00;1.75;;;;;;;;;;5019572;28;20048;-74
2023/09/01 11:09:13;;;;;;;6.78;2.40;;;;;;;;;;5021633;28;20048;-73
2023/09/01 11:11:49;;;;;;;6.03;2.40;;;;;;;;;;4998779;28;20064;-73
2023/09/01 11:14:20;;;;;;;6.63;2.90;;;;;;;;;;5017249;28;20044;-73
2023/09/01 11:16:46;;;;;;;3.50;2.55;;;;;;;;;;5019095;28;20517;-73
2023/09/01 11:19:12;;;;;;;2.92;2.35;;;;;;;;;;5020140;28;20405;-73
2023/09/01 11:21:41;;;;;;;5.82;2.67;;;;;;;;;;5017013;28;20071;-73
2023/09/01 11:24:07;;;;;;;4.38;2.60;;;;;;;;;;5038336;28;20040;-73
2023/09/01 11:26:37;;;;;;;6.18;2.63;;;;;;;;;;5017484;28;20048;-75
2023/09/01 11:29:08;;;;;;;6.28;2.58;;;;;;;;;;5020058;28;20079;-74
2023/09/01 11:31:38;;;;;;;4.18;2.33;;;;;;;;;;5018024;28;20049;-74
2023/09/01 11:34:05;;;;;;;4.20;2.28;;;;;;;;;;5020873;28;20053;-74
2023/09/01 11:36:31;;;;;;;8.27;2.45;;;;;;;;;;5007817;28;20493;-73
2023/09/01 11:38:57;;;;;;;2.90;1.80;;;;;;;;;;5020017;28;20051;-73
2023/09/01 11:41:23;;;;;;;3.60;2.05;;;;;;;;;;5020063;28;22062;-76
2023/09/01 11:43:50;;;;;;;3.17;1.67;;;;;;;;;;5021465;28;20067;-76
2023/09/01 11:46:17;;;;;;;4.63;1.80;;;;;;;;;;5021828;28;20053;-73
2023/09/01 11:48:47;;;;;;;3.70;1.50;;;;;;;;;;5017594;28;20134;-77
2023/09/01 11:51:13;;;;;;;3.72;1.40;;;;;;;;;;5019817;28;20048;-77
2023/09/01 11:53:39;;;;;;;4.25;1.55;;;;;;;;;;5027143;28;20051;-77
2023/09/01 11:56:20;;;;;;;6.05;1.90;;;;;;;;;;5024052;28;20040;-77
2023/09/01 11:58:48;;;;;;;3.35;2.03;;;;;;;;;;5037124;28;20160;-74
2023/09/01 12:01:15;;;;;;;7.03;1.75;;;;;;;;;;5018557;28;20040;-74
2023/09/01 12:03:48;;;;;;;4.30;1.70;;;;;;;;;;5017883;28;22355;-74
2023/09/01 12:06:18;;;;;;;3.92;2.03;;;;;;;;;;5018136;28;20044;-74
2023/09/01 12:08:45;;;;;;;4.03;1.90;;;;;;;;;;5017589;28;20111;-74
2023/09/01 12:11:12;;;;;;;5.22;1.70;;;;;;;;;;5021237;28;21365;-74
2023/09/01 12:13:38;;;;;;;4.47;1.83;;;;;;;;;;5018888;28;20067;-74
2023/09/01 12:16:04;;;;;;;2.15;1.30;;;;;;;;;;5034424;28;20056;-74
2023/09/01 12:18:41;;;;;;;3.00;1.42;;;;;;;;;;5036487;28;20913;-74
2023/09/01 12:21:08;;;;;;;3.60;1.45;;;;;;;;;;5003751;28;20036;-74
2023/09/01 12:23:38;;;;;;;2.70;1.45;;;;;;;;;;5037459;28;21958;-77
2023/09/01 12:26:04;;;;;;;3.03;1.55;;;;;;;;;;5036830;28;20056;-77
2023/09/01 12:28:31;;;;;;;4.93;1.60;;;;;;;;;;5035842;28;20036;-74
2023/09/01 12:30:58;;;;;;;3.65;1.80;;;;;;;;;;5035724;28;20057;-74
2023/09/01 12:33:24;;;;;;;3.45;1.80;;;;;;;;;;5036164;28;20041;-74
2023/09/01 12:35:50;;;;;;;4.20;1.55;;;;;;;;;;5017924;28;20051;-74
2023/09/01 12:38:17;;;;;;;3.60;1.58;;;;;;;;;;5017478;28;20059;-74
2023/09/01 12:40:44;;;;;;;3.17;1.48;;;;;;;;;;5018569;28;20447;-74
2023/09/01 12:43:10;;;;;;;4.53;1.20;;;;;;;;;;5018704;28;20045;-74
2023/09/01 12:45:36;;;;;;;5.13;1.55;;;;;;;;;;5034668;28;20159;-74
2023/09/01 12:48:03;;;;;;;4.63;1.30;;;;;;;;;;5019865;28;20068;-75
2023/09/01 12:50:30;;;;;;;3.03;1.00;;;;;;;;;;5002430;28;20037;-77
2023/09/01 12:52:57;;;;;;;2.63;1.08;;;;;;;;;;5020442;28;20067;-75
2023/09/01 12:55:24;;;;;;;3.45;1.17;;;;;;;;;;5039450;28;20041;-75
2023/09/01 12:57:50;;;;;;;1.45;1.00;;;;;;;;;;5022150;28;20048;-75
2023/09/01 13:00:16;;;;;;;2.72;0.88;;;;;;;;;;5032148;28;20052;-76
2023/09/01 13:02:43;;;;;;;3.30;1.65;;;;;;;;;;5002726;28;20073;-75
2023/09/01 13:05:09;;;;;;;2.45;1.30;;;;;;;;;;5018761;28;20056;-76
2023/09/01 13:07:35;;;;;;;3.25;1.40;;;;;;;;;;5004527;28;20059;-78
2023/09/01 13:10:01;;;;;;;3.47;1.30;;;;;;;;;;5019660;28;20048;-83
2023/09/01 13:12:28;;;;;;;2.25;1.10;;;;;;;;;;5026474;28;20033;-82
2023/09/01 13:14:57;;;;;;;4.15;1.58;;;;;;;;;;5040451;28;20054;-78
2023/09/01 13:17:25;;;;;;;4.82;1.52;;;;;;;;;;5002578;28;20152;-77
2023/09/01 13:19:52;;;;;;;4.47;2.00;;;;;;;;;;5013995;28;20048;-77
2023/09/01 13:22:18;;;;;;;4.50;1.40;;;;;;;;;;5014384;28;20068;-78
2023/09/01 13:24:44;;;;;;;7.03;2.92;;;;;;;;;;5019181;28;20056;-82
2023/09/01 13:27:10;;;;;;;5.90;1.75;;;;;;;;;;5018616;28;20040;-81
2023/09/01 13:29:36;;;;;;;3.08;1.52;;;;;;;;;;5018922;28;20135;-81
2023/09/01 13:32:02;;;;;;;3.75;1.58;;;;;;;;;;5016841;28;20083;-81
2023/09/01 13:34:28;;;;;;;2.85;1.48;;;;;;;;;;5035660;28;20438;-78
2023/09/01 13:36:54;;;;;;;3.35;1.70;;;;;;;;;;5004401;28;20044;-81
2023/09/01 13:39:20;;;;;;;5.55;2.08;;;;;;;;;;4999964;28;20049;-81
2023/09/01 13:41:46;;;;;;;6.43;2.00;;;;;;;;;;5035872;28;20871;-82
2023/09/01 13:44:12;;;;;;;3.40;2.20;;;;;;;;;;5035243;28;20146;-81
2023/09/01 13:46:41;;;;;;;5.53;1.80;;;;;;;;;;5019465;28;20064;-81
2023/09/01 13:49:09;;;;;;;4.68;1.45;;;;;;;;;;5021003;28;20033;-82
2023/09/01 13:51:35;;;;;;;1.98;1.33;;;;;;;;;;5008227;28;20087;-82
2023/09/01 13:54:01;;;;;;;5.07;1.60;;;;;;;;;;5015073;28;20493;-79
2023/09/01 13:56:27;;;;;;;3.17;1.27;;;;;;;;;;5019731;28;20044;-79
2023/09/01 13:58:53;;;;;;;6.13;1.65;;;;;;;;;;5043497;28;21869;-84
2023/09/01 14:01:19;;;;;;;3.58;1.60;;;;;;;;;;5015998;28;20037;-82
2023/09/01 14:03:46;;;;;;;3.85;1.63;;;;;;;;;;5000320;28;20036;-82
2023/09/01 14:06:12;;;;;;;3.53;1.60;;;;;;;;;;5019965;28;20041;-82
2023/09/01 14:08:38;;;;;;;5.10;1.55;;;;;;;;;;5006544;28;20045;-83
2023/09/01 14:11:04;;;;;;;3.13;1.40;;;;;;;;;;5016561;28;20048;-83
2023/09/01 14:13:30;;;;;;;7.95;1.70;;;;;;;;;;5022966;28;20072;-84
2023/09/01 14:15:57;;;;;;;3.92;1.33;;;;;;;;;;5039581;28;20064;-83
2023/09/01 14:18:24;;;;;;;4.57;1.30;;;;;;;;;;5006707;28;20444;-79
2023/09/01 14:20:52;;;;;;;2.88;1.70;;;;;;;;;;5017621;28;20040;-80
2023/09/01 14:23:25;;;;;;;4.60;2.13;;;;;;;;;;4999634;28;20090;-80
2023/09/01 14:25:55;;;;;;;5.72;2.17;;;;;;;;;;5000585;28;21051;-81
2023/09/01 14:28:21;;;;;;;2.90;1.60;;;;;;;;;;5000807;28;20037;-79
2023/09/01 14:30:47;;;;;;;7.28;2.10;;;;;;;;;;5031550;28;20136;-79
2023/09/01 14:33:13;;;;;;;3.10;1.70;;;;;;;;;;5025161;28;20060;-82
2023/09/01 14:35:40;;;;;;;3.50;1.67;;;;;;;;;;5016425;28;20045;-81
2023/09/01 14:38:06;;;;;;;3.92;1.75;;;;;;;;;;5012140;28;20478;-81
2023/09/01 14:40:33;;;;;;;5.70;1.92;;;;;;;;;;5015534;28;20040;-84